Latest Weather Observations for Barrow Island

IDW60801

Issued at 11:03 am WST Friday 19 January 2018 (issued every 30 minutes, with the page automatically refreshed every 10 minutes)

About weather observations | Map of weather stations | Latest weather observations for WA | Other Formats
Station Details ID: 005094 Name: BARROW ISLAND AIRPORT Lat: -20.87 Lon: 115.41 Height: 6.4 m
Data from the previous 72 hours. | See also: Recent months at Barrow Island
Date/Time
WST
Temp
°C
App
Temp
°C
Dew
Point
°C
Rel
Hum
%
Delta-T
°C
Wind Press
QNH
hPa
Press
MSL
hPa
Rain since
9am
mm
Dir  Spd
km/h
Gust
km/h
Spd
kts
Gust
kts
19/11:00am 32.0 35.1 24.1 63 5.5 SW 15 20 8 11 1006.5 - 0.0
19/10:30am 31.6 34.1 24.5 66 5.0 SW 19 24 10 13 1006.3 - 0.0
19/10:00am 31.2 34.3 24.8 69 4.5 SW 17 22 9 12 1006.9 - 0.0
19/09:30am 30.7 34.4 24.6 70 4.3 SSW 13 19 7 10 1006.9 - 0.0
19/09:00am 31.2 35.4 24.1 66 5.0 S 9 13 5 7 1007.2 1007.2 0.0
19/08:30am 30.7 34.4 23.9 67 4.7 SSW 11 15 6 8 1007.3 - 0.0
19/08:00am 30.4 34.0 24.3 70 4.3 SSW 13 17 7 9 1007.2 - 0.0
19/07:30am 29.6 33.5 24.2 73 3.8 WSW 11 15 6 8 1007.3 - 0.0
19/07:00am 28.8 33.3 24.6 78 2.9 WNW 9 11 5 6 1006.9 - 0.0
19/06:30am 27.3 32.1 24.4 84 2.0 WNW 7 9 4 5 1006.8 - 0.0
19/06:00am 27.2 32.0 24.1 83 2.1 NW 6 7 3 4 1006.7 1006.7 0.0
19/05:30am 27.5 31.5 23.7 80 2.6 WSW 9 11 5 6 1006.5 - 0.0
19/05:00am 27.7 31.0 23.9 80 2.6 W 13 15 7 8 1006.1 - 0.0
19/04:30am 27.9 30.7 24.3 81 2.5 WSW 17 19 9 10 1005.7 - 0.0
19/04:00am 27.9 30.9 24.7 83 2.2 WSW 17 24 9 13 1005.5 - 0.0
19/03:30am 27.9 31.3 24.7 83 2.2 W 15 20 8 11 1005.7 - 0.0
19/03:00am 27.3 30.7 24.7 86 1.8 W 15 17 8 9 1005.8 1005.8 0.0
19/02:30am 27.5 31.9 24.5 84 2.1 WNW 9 11 5 6 1006.1 - 0.0
19/02:00am 27.5 31.1 24.3 83 2.2 W 13 15 7 8 1006.1 - 0.0
19/01:30am 27.6 31.5 24.2 82 2.4 W 11 13 6 7 1006.3 - 0.0
19/01:00am 27.5 30.9 24.1 82 2.3 WNW 13 15 7 8 1006.5 - 0.0
19/12:30am 27.5 31.2 23.9 81 2.5 WNW 11 15 6 8 1006.9 - 0.0
19/12:00am 27.7 30.9 23.7 79 2.8 W 13 17 7 9 1007.0 1007.0 0.0
 
Date/Time
WST
Temp
°C
App
Temp
°C
Dew
Point
°C
Rel
Hum
%
Delta-T
°C
Wind Press
QNH
hPa
Press
MSL
hPa
Rain since
9am
mm
Dir  Spd
km/h
Gust
km/h
Spd
kts
Gust
kts
18/11:30pm 27.8 30.7 23.8 79 2.8 WSW 15 20 8 11 1007.2 - 0.0
18/11:00pm 28.2 30.7 24.8 82 2.4 WSW 20 26 11 14 1007.2 - 0.0
18/10:30pm 28.0 29.9 24.4 81 2.5 WSW 22 30 12 16 1007.2 - 0.0
18/10:00pm 28.1 29.2 24.3 80 2.6 WSW 26 33 14 18 1007.0 - 0.0
18/09:30pm 28.2 29.3 24.4 80 2.6 WSW 26 33 14 18 1006.6 - 0.0
18/09:00pm 28.4 29.4 24.2 78 2.9 WSW 26 32 14 17 1006.6 1006.6 0.0
18/08:30pm 28.5 29.6 24.3 78 2.9 WSW 26 32 14 17 1006.7 - 0.0
18/08:00pm 28.6 30.2 23.9 75 3.2 WSW 22 30 12 16 1006.5 - 0.0
18/07:30pm 28.6 29.3 23.7 75 3.4 W 26 32 14 17 1006.0 - 0.0
18/07:00pm 29.0 29.9 23.9 74 3.5 W 26 30 14 16 1005.5 - 0.0
18/06:30pm 30.1 31.4 24.0 70 4.2 W 24 30 13 16 1004.7 - 0.0
18/06:00pm 30.8 31.4 23.5 65 5.1 W 26 33 14 18 1004.5 1004.5 0.0
18/05:30pm 31.5 32.2 23.6 63 5.5 W 26 35 14 19 1004.2 - 0.0
18/05:00pm 32.3 32.3 23.0 58 6.4 W 28 33 15 18 1004.0 - 0.0
18/04:30pm 32.7 33.5 23.1 57 6.6 WNW 24 33 13 18 1004.0 - 0.0
18/04:00pm 32.9 33.5 23.5 57 6.5 W 26 35 14 19 1004.1 - 0.0
18/03:30pm 33.0 33.4 22.4 53 7.3 W 24 30 13 16 1004.3 - 0.0
18/03:00pm 33.3 33.8 22.7 53 7.3 W 24 33 13 18 1004.7 1004.7 0.0
18/02:30pm 33.1 34.1 22.8 54 7.1 W 22 28 12 15 1004.9 - 0.0
18/02:00pm 32.7 33.9 22.5 55 7.0 WSW 20 26 11 14 1005.3 - 0.0
18/01:30pm 33.0 35.0 23.9 59 6.3 WSW 20 30 11 16 1005.6 - 0.0
18/01:00pm 32.3 34.6 25.1 65 5.1 SSW 22 28 12 15 1005.7 - 0.0
18/12:30pm 31.8 33.6 24.9 67 4.9 SSW 24 30 13 16 1005.8 - 0.0
18/12:00pm 31.9 34.6 25.0 67 4.9 SSW 20 26 11 14 1006.1 1006.1 0.0
18/11:30am 31.2 33.4 24.3 66 4.8 SSW 20 26 11 14 1006.2 - 0.0
18/11:00am 32.1 34.5 24.2 63 5.5 SSW 19 24 10 13 1006.5 - 0.0
18/10:30am 31.7 34.6 23.8 63 5.5 SSW 15 20 8 11 1006.6 - 0.0
18/10:00am 31.6 34.2 23.9 63 5.4 SSW 17 20 9 11 1006.8 - 0.0
18/09:30am 31.6 34.4 23.7 63 5.5 S 15 19 8 10 1006.7 - 0.0
18/09:00am 31.1 33.5 23.7 64 5.1 SSW 17 20 9 11 1006.7 1006.7 1.0
18/08:30am 31.0 33.2 23.9 66 4.9 SSW 19 26 10 14 1006.7 - 1.0
18/08:00am 30.2 32.8 23.9 69 4.4 SSW 17 20 9 11 1006.5 - 1.0
18/07:30am 29.5 32.0 23.2 69 4.3 SW 15 19 8 10 1006.4 - 1.0
18/07:00am 28.8 31.8 24.6 78 2.9 SW 17 20 9 11 1006.5 - 1.0
18/06:30am 28.3 30.4 24.1 78 2.9 SW 20 26 11 14 1006.3 - 1.0
18/06:00am 28.1 30.0 23.7 77 3.0 SW 20 24 11 13 1006.2 1006.2 1.0
18/05:30am 28.1 30.5 23.7 77 3.0 SW 17 20 9 11 1006.0 - 1.0
18/05:00am 28.0 30.5 23.8 78 2.9 SW 17 20 9 11 1006.0 - 1.0
18/04:30am 28.0 29.7 24.0 79 2.8 SSW 22 26 12 14 1005.8 - 1.0
18/04:00am 28.4 30.6 24.8 81 2.5 SSW 22 28 12 15 1005.6 - 1.0
18/03:30am 28.6 30.9 25.0 81 2.5 SW 22 24 12 13 1005.7 - 1.0
18/03:00am 28.7 30.5 24.9 80 2.7 SW 24 30 13 16 1005.8 1005.8 1.0
18/02:30am 28.6 29.6 24.2 77 3.1 SW 26 30 14 16 1005.6 - 1.0
18/02:00am 28.3 29.5 25.1 83 2.2 SW 28 32 15 17 1005.6 - 1.0
18/01:30am 28.5 30.7 25.5 84 2.1 SW 24 28 13 15 1005.8 - 1.0
18/01:00am 28.5 31.2 25.1 82 2.4 SW 20 28 11 15 1006.1 - 1.0
18/12:30am 28.6 31.1 24.8 80 2.7 WSW 20 24 11 13 1006.3 - 1.0
18/12:00am 28.5 30.9 24.3 78 2.9 WSW 19 24 10 13 1006.5 1006.5 1.0
 
Date/Time
WST
Temp
°C
App
Temp
°C
Dew
Point
°C
Rel
Hum
%
Delta-T
°C
Wind Press
QNH
hPa
Press
MSL
hPa
Rain since
9am
mm
Dir  Spd
km/h
Gust
km/h
Spd
kts
Gust
kts
17/11:30pm 28.6 31.6 24.6 79 2.8 WSW 17 22 9 12 1006.5 - 1.0
17/11:00pm 28.7 31.4 24.7 79 2.8 WSW 19 24 10 13 1006.6 - 1.0
17/10:30pm 28.5 31.8 24.5 79 2.8 WSW 15 19 8 10 1006.6 - 1.0
17/10:00pm 28.6 32.3 24.6 79 2.8 WSW 13 17 7 9 1006.4 - 1.0
17/09:30pm 28.1 32.0 24.3 80 2.6 W 11 13 6 7 1006.0 - 1.0
17/09:00pm 28.5 31.9 24.1 77 3.1 W 13 17 7 9 1005.6 1005.6 1.0
17/08:30pm 28.7 32.3 24.3 77 3.1 W 13 17 7 9 1005.4 - 1.0
17/08:00pm 29.0 32.3 23.9 74 3.5 W 13 15 7 8 1005.4 - 1.0
17/07:30pm 29.4 32.7 23.8 72 3.9 WSW 13 17 7 9 1005.2 - 1.0
17/07:00pm 29.9 33.0 23.6 69 4.3 WSW 13 15 7 8 1004.9 - 1.0
17/06:30pm 30.2 32.9 23.4 67 4.7 WSW 15 17 8 9 1004.6 - 1.0
17/06:00pm 30.9 34.1 23.0 62 5.4 SW 11 15 6 8 1004.4 1004.4 1.0
17/05:30pm 31.5 34.7 23.1 61 5.8 SSW 11 15 6 8 1003.9 - 1.0
17/05:00pm 31.2 34.4 23.0 61 5.6 S 11 13 6 7 1003.8 - 1.0
17/04:30pm 31.2 35.0 22.8 61 5.8 S 7 9 4 5 1003.8 - 1.0
17/04:00pm 32.0 36.6 23.8 62 5.7 S 6 9 3 5 1004.0 - 1.0
17/03:30pm 30.9 35.0 23.3 64 5.2 SSE 7 9 4 5 1004.4 - 1.0
17/03:00pm 31.5 36.1 24.1 65 5.2 SSE 7 11 4 6 1004.7 1004.7 1.0
17/02:30pm 30.8 34.5 23.2 64 5.2 SE 9 13 5 7 1005.2 - 1.0
17/02:00pm 30.9 34.7 23.5 64 5.1 SSE 9 11 5 6 1005.5 - 1.0
17/01:30pm 30.5 35.1 24.2 69 4.4 SSE 7 11 4 6 1005.8 - 1.0
17/01:00pm 30.2 34.0 23.4 67 4.7 SSE 9 13 5 7 1006.1 - 1.0
17/12:30pm 30.8 34.3 23.5 65 5.0 SSE 11 17 6 9 1006.1 - 1.0
17/12:00pm 30.4 35.2 25.7 76 3.3 S 11 15 6 8 1006.6 1006.6 1.0
17/11:30am 28.8 32.4 25.0 80 2.7 S 15 17 8 9 1007.0 - 1.0
17/11:00am 28.1 31.9 25.3 85 2.0 SW 15 19 8 10 1007.2 - 1.0
17/10:30am 28.6 31.8 24.4 78 2.9 S 15 19 8 10 1007.3 - 0.0
17/10:00am 28.7 32.5 23.4 73 3.6 SSW 9 13 5 7 1007.2 - 0.0
17/09:30am 28.4 32.7 23.3 74 3.5 S 6 9 3 5 1007.2 - 0.0
17/09:00am 27.7 32.4 23.9 80 2.6 SSW 6 9 3 5 1007.3 1007.3 12.4
17/08:30am 26.7 31.5 25.1 91 1.1 S 9 13 5 7 1007.2 - 12.4
17/08:00am 26.0 30.9 24.6 92 1.0 WSW 7 9 4 5 1007.4 - 12.4
17/07:30am 25.9 30.3 24.5 92 1.0 WNW 9 13 5 7 1007.3 - 12.4
17/07:00am 25.7 29.6 24.3 92 1.0 WNW 11 17 6 9 1007.2 - 12.4
17/06:30am 25.3 27.5 23.9 92 1.0 WNW 19 20 10 11 1007.0 - 12.0
17/06:00am 25.5 29.2 23.9 91 1.1 NNW 11 19 6 10 1006.6 1006.6 10.6
17/05:30am 26.1 29.9 24.1 89 1.4 NW 11 15 6 8 1006.0 - 9.6
17/05:00am 26.5 27.1 24.2 87 1.6 SSE 28 35 15 19 1005.6 - 8.2
17/04:42am 26.9 29.0 24.7 88 1.5 S 22 46 12 25 1005.2 - 6.2
17/04:37am 27.2 26.2 24.3 84 2.0 SSE 37 46 20 25 1005.2 - 4.0
17/04:30am 29.1 30.9 25.5 81 2.5 S 26 30 14 16 1005.1 - 0.2
17/04:00am 28.9 31.2 25.7 83 2.3 S 24 28 13 15 1004.9 - 0.2
17/03:30am 28.8 32.2 25.8 84 2.1 S 19 24 10 13 1005.3 - 0.2
17/03:00am 28.8 32.7 26.0 85 2.0 SSW 17 20 9 11 1005.7 1005.7 0.2
17/02:30am 28.7 33.8 26.1 86 1.8 SW 11 13 6 7 1005.8 - 0.2
17/02:00am 28.7 33.8 26.1 86 1.8 WSW 11 15 6 8 1006.1 - 0.2
17/01:30am 28.7 33.5 26.3 87 1.7 SW 13 17 7 9 1006.4 - 0.2
17/01:00am 28.6 33.7 26.2 87 1.7 WSW 11 15 6 8 1006.5 - 0.2
17/12:30am 28.6 34.3 26.4 88 1.6 WSW 9 13 5 7 1006.6 - 0.2
17/12:00am 28.7 33.9 26.3 87 1.7 WNW 11 13 6 7 1006.6 1006.6 0.2
 
Date/Time
WST
Temp
°C
App
Temp
°C
Dew
Point
°C
Rel
Hum
%
Delta-T
°C
Wind Press
QNH
hPa
Press
MSL
hPa
Rain since
9am
mm
Dir  Spd
km/h
Gust
km/h
Spd
kts
Gust
kts
16/11:30pm 29.0 33.6 25.4 81 2.5 W 11 15 6 8 1006.9 - 0.2
16/11:00pm 29.5 34.9 25.5 79 2.8 W 7 9 4 5 1007.2 - 0.0
16/10:30pm 29.5 35.5 25.5 79 2.8 W 4 6 2 3 1007.4 - 0.0
16/10:00pm 29.6 36.4 25.6 79 2.8 CALM 0 6 0 3 1007.3 - 0.0
16/09:30pm 29.5 34.9 25.5 79 2.8 SW 7 9 4 5 1007.1 - 0.0
16/09:00pm 29.5 34.8 25.3 78 3.0 WSW 7 9 4 5 1007.0 1007.0 0.0
16/08:30pm 29.6 34.2 25.3 77 3.0 WNW 11 13 6 7 1006.4 - 0.0
16/08:00pm 29.7 33.4 25.2 77 3.2 NNW 15 22 8 12 1005.9 - 0.0
16/07:30pm 30.0 32.8 24.9 74 3.6 NNW 19 24 10 13 1005.4 - 0.0
16/07:00pm 30.6 33.6 24.0 68 4.6 NW 15 20 8 11 1005.4 - 0.0
16/06:30pm 30.9 33.6 25.0 71 4.2 NNW 20 28 11 15 1004.1 - 0.0
16/06:00pm 31.3 33.2 24.4 66 4.8 NNW 22 28 12 15 1004.1 1004.1 0.0
16/05:30pm 32.1 34.3 24.2 63 5.5 N 20 30 11 16 1003.7 - 0.0
16/05:00pm 30.9 32.6 25.9 74 3.6 NE 28 32 15 17 1003.8 - 0.0
16/04:30pm 31.2 32.8 25.8 73 3.8 NE 28 32 15 17 1004.0 - 0.0
16/04:00pm 31.9 34.2 26.2 72 4.1 ENE 26 30 14 16 1004.3 - 0.0
16/03:30pm 31.8 33.9 25.9 71 4.2 ENE 26 30 14 16 1004.4 - 0.0
16/03:00pm 31.6 33.8 25.5 70 4.3 ENE 24 30 13 16 1004.7 1004.7 0.0
16/02:30pm 32.4 34.0 25.7 68 4.8 NE 28 32 15 17 1004.9 - 0.0
16/02:00pm 32.5 34.2 25.3 66 5.1 ENE 26 30 14 16 1005.1 - 0.0
16/01:30pm 32.4 34.6 25.5 67 4.9 ENE 24 30 13 16 1005.3 - 0.0
16/01:00pm 32.3 34.3 24.6 64 5.4 ENE 22 28 12 15 1005.7 - 0.0
16/12:30pm 32.3 34.6 25.1 65 5.1 ENE 22 26 12 14 1006.0 - 0.0
16/12:00pm 32.4 34.8 25.2 66 5.1 ENE 22 26 12 14 1006.4 1006.4 0.0
16/11:30am 31.9 34.2 25.0 67 4.9 ENE 22 26 12 14 1006.6 - 0.0

Other Formats:

Comma delimited format used in spreadsheet applications
http://www.bom.gov.au/fwo/IDW60801/IDW60801.95304.axf

JavaScript Object Notation format (JSON) in row-major order
http://www.bom.gov.au/fwo/IDW60801/IDW60801.95304.json